Time;durP1;ratioP1;P1;durP2;ratioP2;P2;SDS_P1;SDS_P2;PMS_P1;PMS_P2;Temp;Humidity;BMP_temperature;BMP_pressure;BME280_temperature;BME280_humidity;BME280_pressure;Samples;Min_cycle;Max_cycle;Signal;HPM_P1;HPM_P2
2024/02/24 00:01:04;;;;;;;7.10;3.63;;;3.90;1.00;;;;;;4994876;28;20182;-69
2024/02/24 00:03:30;;;;;;;5.87;2.63;;;3.80;1.00;;;;;;4994657;28;20197;-69
2024/02/24 00:05:55;;;;;;;4.60;3.30;;;3.70;1.00;;;;;;4995118;28;20181;-69
2024/02/24 00:08:21;;;;;;;4.10;3.17;;;3.60;1.00;;;;;;4995169;28;20195;-69
2024/02/24 00:10:46;;;;;;;5.83;3.73;;;3.50;1.00;;;;;;4994808;28;20238;-69
2024/02/24 00:13:12;;;;;;;5.67;2.80;;;3.30;1.00;;;;;;4994758;28;20200;-69
2024/02/24 00:15:37;;;;;;;5.53;3.03;;;3.30;1.00;;;;;;4996961;28;20182;-68
2024/02/24 00:18:04;;;;;;;4.00;2.90;;;3.30;1.00;;;;;;4998660;28;20249;-69
2024/02/24 00:20:29;;;;;;;5.82;3.60;;;3.20;1.00;;;;;;4980475;28;20560;-68
2024/02/24 00:22:55;;;;;;;5.80;3.97;;;3.30;1.00;;;;;;4990346;28;20217;-68
2024/02/24 00:25:20;;;;;;;5.10;3.80;;;3.40;1.10;;;;;;4978429;28;20186;-69
2024/02/24 00:27:46;;;;;;;5.00;2.93;;;3.40;1.50;;;;;;4977956;28;20568;-68
2024/02/24 00:30:13;;;;;;;7.13;3.97;;;3.40;1.00;;;;;;4993663;28;20212;-70
2024/02/24 00:32:38;;;;;;;4.30;2.45;;;3.30;1.00;;;;;;4996468;28;20177;-68
2024/02/24 00:35:04;;;;;;;4.80;3.17;;;3.20;1.40;;;;;;4997640;28;20169;-69
2024/02/24 00:37:30;;;;;;;5.75;3.83;;;3.20;1.60;;;;;;4997205;28;20262;-68
2024/02/24 00:39:55;;;;;;;5.33;3.13;;;3.10;1.50;;;;;;4997045;28;20225;-68
2024/02/24 00:42:21;;;;;;;5.50;3.60;;;3.10;1.80;;;;;;4978696;28;20273;-68
2024/02/24 00:44:46;;;;;;;6.10;3.67;;;3.00;2.20;;;;;;4977092;28;20208;-69
2024/02/24 00:47:12;;;;;;;7.80;3.83;;;3.00;1.80;;;;;;4959416;28;20652;-70
2024/02/24 00:49:37;;;;;;;6.77;3.80;;;2.80;2.50;;;;;;4976936;28;20271;-69
2024/02/24 00:52:03;;;;;;;7.80;4.47;;;2.80;2.90;;;;;;4977067;28;20263;-68
2024/02/24 00:54:29;;;;;;;5.70;3.63;;;2.70;4.20;;;;;;4976492;28;20288;-69
2024/02/24 00:56:54;;;;;;;6.20;3.50;;;2.60;4.80;;;;;;4959173;28;20421;-68
2024/02/24 00:59:20;;;;;;;5.87;2.90;;;2.60;5.90;;;;;;4976662;28;20181;-70
2024/02/24 01:01:45;;;;;;;8.50;3.30;;;2.50;6.50;;;;;;4972731;28;20186;-70
2024/02/24 01:04:11;;;;;;;4.30;2.93;;;2.40;6.90;;;;;;4959118;28;20253;-69
2024/02/24 01:06:36;;;;;;;4.63;2.87;;;2.30;6.90;;;;;;4976718;28;20177;-68
2024/02/24 01:09:02;;;;;;;3.73;2.60;;;2.30;7.40;;;;;;4981428;28;20185;-69
2024/02/24 01:11:28;;;;;;;3.73;2.67;;;2.20;8.40;;;;;;4995635;28;20205;-70
2024/02/24 01:13:54;;;;;;;4.90;3.17;;;2.10;8.80;;;;;;4988028;28;21039;-70
2024/02/24 01:16:19;;;;;;;5.43;2.80;;;2.10;9.40;;;;;;4975372;28;20192;-69
2024/02/24 01:18:44;;;;;;;4.23;2.83;;;2.10;9.80;;;;;;4977189;28;20517;-69
2024/02/24 01:21:10;;;;;;;5.30;3.53;;;2.00;10.60;;;;;;4994153;28;20271;-69
2024/02/24 01:23:38;;;;;;;4.10;2.60;;;2.00;11.10;;;;;;4993485;28;20197;-68
2024/02/24 01:26:03;;;;;;;4.43;2.55;;;2.00;11.00;;;;;;4993759;28;20184;-71
2024/02/24 01:28:30;;;;;;;3.63;2.30;;;2.00;11.30;;;;;;4989230;28;20192;-69
2024/02/24 01:30:56;;;;;;;4.45;2.70;;;2.00;11.50;;;;;;4975103;28;20197;-70
2024/02/24 01:33:21;;;;;;;5.67;2.50;;;1.90;11.60;;;;;;4973762;28;20257;-69
2024/02/24 01:35:47;;;;;;;4.77;2.40;;;1.90;11.70;;;;;;4974319;28;20203;-70
2024/02/24 01:38:12;;;;;;;3.50;2.17;;;2.00;13.00;;;;;;4974605;28;20177;-70
2024/02/24 01:40:38;;;;;;;4.33;2.70;;;2.10;13.60;;;;;;4974170;28;20194;-69
2024/02/24 01:43:32;;;;;;;4.30;2.20;;;2.30;12.30;;;;;;4973566;28;20686;-68
2024/02/24 01:45:58;;;;;;;3.55;2.35;;;2.50;12.20;;;;;;4973949;28;20262;-69
2024/02/24 01:48:24;;;;;;;7.55;3.63;;;2.60;10.50;;;;;;4974181;28;20188;-70
2024/02/24 01:50:50;;;;;;;5.10;3.87;;;2.60;10.60;;;;;;4973793;28;20288;-69
2024/02/24 01:53:16;;;;;;;4.25;3.58;;;2.60;10.00;;;;;;4983687;28;20231;-69
2024/02/24 01:55:43;;;;;;;8.13;4.10;;;2.60;9.90;;;;;;4975804;28;20177;-69
2024/02/24 01:58:10;;;;;;;9.30;4.10;;;2.70;9.40;;;;;;4993193;28;20181;-70
2024/02/24 02:00:36;;;;;;;6.65;4.53;;;2.80;9.00;;;;;;4987851;28;20213;-69
2024/02/24 02:03:02;;;;;;;8.57;4.10;;;2.70;8.80;;;;;;4973871;28;20320;-69
2024/02/24 02:05:28;;;;;;;9.07;3.90;;;2.80;8.70;;;;;;4973915;28;20189;-70
2024/02/24 02:07:54;;;;;;;9.13;3.70;;;2.70;8.00;;;;;;4974202;28;20654;-70
2024/02/24 02:10:19;;;;;;;4.80;3.23;;;2.70;9.00;;;;;;4973192;28;20453;-69
2024/02/24 02:12:45;;;;;;;7.20;2.27;;;2.80;7.80;;;;;;4955903;28;20206;-70
2024/02/24 02:15:11;;;;;;;4.03;2.67;;;2.80;7.50;;;;;;4973510;28;20178;-70
2024/02/24 02:17:36;;;;;;;8.60;3.93;;;2.90;6.60;;;;;;4973850;28;20561;-71
2024/02/24 02:20:03;;;;;;;9.30;3.87;;;2.90;7.10;;;;;;4973798;28;20505;-70
2024/02/24 02:22:30;;;;;;;5.15;2.40;;;2.80;6.30;;;;;;4974623;28;20179;-69
2024/02/24 02:24:56;;;;;;;4.90;2.80;;;2.90;6.40;;;;;;4974146;28;20189;-69
2024/02/24 02:27:21;;;;;;;4.67;2.93;;;2.90;6.30;;;;;;4973891;28;20207;-70
2024/02/24 02:29:47;;;;;;;7.27;2.90;;;2.90;6.30;;;;;;4973823;28;20235;-70
2024/02/24 02:32:12;;;;;;;6.03;2.90;;;3.00;6.00;;;;;;4975043;28;20252;-69
2024/02/24 02:34:38;;;;;;;5.80;2.50;;;3.00;5.90;;;;;;4973972;28;20249;-68
2024/02/24 02:37:05;;;;;;;4.63;2.30;;;3.10;5.60;;;;;;4992787;28;20181;-69
2024/02/24 02:39:30;;;;;;;5.95;2.35;;;3.20;5.30;;;;;;4993264;28;20689;-69
2024/02/24 02:41:56;;;;;;;4.80;2.23;;;3.30;4.40;;;;;;4993058;28;20293;-68
2024/02/24 02:44:22;;;;;;;3.93;2.63;;;3.30;4.10;;;;;;4993465;28;20203;-68
2024/02/24 02:46:49;;;;;;;7.75;2.35;;;3.20;3.80;;;;;;4993723;28;20170;-69
2024/02/24 02:49:15;;;;;;;3.45;1.83;;;3.20;4.50;;;;;;4976286;28;20206;-68
2024/02/24 02:51:41;;;;;;;3.45;1.80;;;3.20;4.00;;;;;;4975687;28;20718;-70
2024/02/24 02:54:07;;;;;;;2.50;1.50;;;3.20;4.60;;;;;;4976070;28;20285;-70
2024/02/24 02:56:32;;;;;;;2.57;1.63;;;3.20;4.90;;;;;;4973777;28;20202;-68
2024/02/24 02:58:58;;;;;;;3.63;2.10;;;3.20;4.80;;;;;;4973285;28;20241;-70
2024/02/24 03:01:24;;;;;;;3.50;2.00;;;3.10;5.20;;;;;;4987615;28;20841;-69
2024/02/24 03:03:50;;;;;;;2.73;1.70;;;3.10;5.60;;;;;;4992645;28;20211;-69
2024/02/24 03:06:17;;;;;;;2.23;1.20;;;3.20;5.60;;;;;;4992652;28;20204;-70
2024/02/24 03:08:43;;;;;;;2.72;1.65;;;3.30;5.70;;;;;;4975077;28;20261;-69
2024/02/24 03:11:15;;;;;;;4.10;1.93;;;3.30;5.00;;;;;;4983523;28;20196;-69
2024/02/24 03:13:40;;;;;;;2.40;1.50;;;3.40;4.90;;;;;;4973359;28;20269;-70
2024/02/24 03:16:06;;;;;;;2.73;1.50;;;3.40;4.70;;;;;;4956304;28;20666;-69
2024/02/24 03:18:32;;;;;;;3.27;1.73;;;3.40;4.50;;;;;;4973159;28;20630;-70
2024/02/24 03:20:57;;;;;;;3.80;2.37;;;3.40;5.00;;;;;;4973228;28;20545;-68
2024/02/24 03:23:23;;;;;;;2.63;1.63;;;3.50;4.50;;;;;;4976818;28;20249;-67
2024/02/24 03:25:48;;;;;;;3.00;1.60;;;3.50;4.40;;;;;;4977198;28;20264;-69
2024/02/24 03:28:14;;;;;;;2.77;1.60;;;3.40;4.50;;;;;;4977242;28;20186;-69
2024/02/24 03:30:40;;;;;;;3.28;1.40;;;3.30;4.40;;;;;;4981563;28;20211;-70
2024/02/24 03:33:06;;;;;;;2.30;1.27;;;3.10;5.40;;;;;;4978647;28;20572;-68
2024/02/24 03:35:31;;;;;;;3.37;1.30;;;3.00;5.90;;;;;;4990192;28;20189;-70
2024/02/24 03:37:57;;;;;;;3.40;1.50;;;2.90;6.50;;;;;;4977206;28;20294;-71
2024/02/24 03:40:22;;;;;;;6.03;1.70;;;2.80;7.10;;;;;;4979445;28;20203;-68
2024/02/24 03:42:48;;;;;;;7.17;1.90;;;2.70;7.60;;;;;;4978329;28;20241;-70
2024/02/24 03:45:13;;;;;;;5.20;2.43;;;2.60;8.00;;;;;;4995997;28;20182;-69
2024/02/24 03:47:39;;;;;;;5.80;2.07;;;2.60;8.90;;;;;;4996082;28;20188;-68
2024/02/24 03:50:06;;;;;;;6.50;2.50;;;2.50;9.00;;;;;;4996095;28;20193;-70
2024/02/24 03:52:31;;;;;;;3.28;1.80;;;2.40;9.10;;;;;;4994227;28;20619;-69
2024/02/24 03:54:57;;;;;;;4.63;2.23;;;2.30;10.00;;;;;;4997014;28;20197;-70
2024/02/24 03:57:22;;;;;;;2.40;1.70;;;2.30;10.90;;;;;;4999109;28;20386;-69
2024/02/24 03:59:48;;;;;;;3.50;2.30;;;2.20;10.90;;;;;;4999599;28;20180;-69
2024/02/24 04:02:13;;;;;;;3.03;1.80;;;2.20;11.50;;;;;;4980240;28;20218;-68
2024/02/24 04:04:39;;;;;;;2.27;1.40;;;2.10;12.00;;;;;;4977776;28;20410;-69
2024/02/24 04:07:05;;;;;;;2.97;1.70;;;2.10;11.90;;;;;;4976792;28;20194;-69
2024/02/24 04:09:30;;;;;;;4.27;2.13;;;2.10;12.30;;;;;;4976350;28;20187;-70
2024/02/24 04:11:56;;;;;;;3.17;1.13;;;2.10;12.90;;;;;;4975851;28;20197;-69
2024/02/24 04:14:22;;;;;;;4.37;2.10;;;2.10;12.70;;;;;;4975793;28;20307;-69
2024/02/24 04:16:47;;;;;;;4.70;2.70;;;2.10;12.90;;;;;;4975640;28;20576;-70
2024/02/24 04:19:13;;;;;;;2.63;1.83;;;2.10;12.60;;;;;;4975525;28;20684;-70
2024/02/24 04:21:38;;;;;;;2.47;1.60;;;2.20;12.70;;;;;;4975758;28;20190;-70
2024/02/24 04:24:05;;;;;;;4.67;2.10;;;2.20;12.80;;;;;;4958215;28;20203;-70
2024/02/24 04:26:30;;;;;;;2.10;1.33;;;2.20;12.30;;;;;;4976112;28;20671;-70
2024/02/24 04:28:57;;;;;;;2.70;1.70;;;2.20;12.20;;;;;;4976217;28;20273;-69
2024/02/24 04:31:22;;;;;;;2.88;1.45;;;2.20;12.70;;;;;;4976331;28;20209;-70
2024/02/24 04:33:48;;;;;;;3.00;1.83;;;2.30;12.10;;;;;;4975113;28;20201;-72
2024/02/24 04:36:13;;;;;;;4.30;1.80;;;2.30;12.10;;;;;;4993532;28;20185;-69
2024/02/24 04:38:39;;;;;;;5.80;1.60;;;2.30;11.50;;;;;;4978033;28;20554;-69
2024/02/24 04:41:04;;;;;;;3.23;1.23;;;2.30;11.60;;;;;;4994860;28;20180;-69
2024/02/24 04:43:30;;;;;;;3.33;1.50;;;2.40;11.70;;;;;;4994299;28;20194;-69
2024/02/24 04:45:56;;;;;;;4.03;1.50;;;2.40;11.50;;;;;;4977223;28;20170;-68
2024/02/24 04:48:21;;;;;;;3.63;1.77;;;2.40;11.30;;;;;;4994747;28;20294;-70
2024/02/24 04:50:47;;;;;;;4.97;1.40;;;2.50;11.80;;;;;;4976867;28;20448;-69
2024/02/24 04:53:12;;;;;;;3.67;1.90;;;2.50;11.50;;;;;;4967040;28;20210;-69
2024/02/24 04:55:38;;;;;;;4.27;1.60;;;2.50;10.80;;;;;;4957794;28;20175;-70
2024/02/24 04:58:04;;;;;;;3.03;1.50;;;2.60;10.40;;;;;;4975324;28;20529;-70
2024/02/24 05:00:30;;;;;;;4.20;1.60;;;2.60;10.10;;;;;;4982008;28;20178;-71
2024/02/24 05:02:55;;;;;;;2.63;1.67;;;2.70;10.10;;;;;;4994230;28;20756;-70
2024/02/24 05:05:21;;;;;;;11.40;2.20;;;2.70;10.10;;;;;;4994482;28;20196;-69
2024/02/24 05:07:47;;;;;;;2.47;1.47;;;2.80;10.20;;;;;;4994455;28;20194;-69
2024/02/24 05:10:12;;;;;;;4.30;1.60;;;2.80;10.20;;;;;;4976499;28;20198;-70
2024/02/24 05:12:38;;;;;;;2.50;1.60;;;2.80;9.80;;;;;;4993981;28;20182;-69
2024/02/24 05:15:04;;;;;;;4.30;1.90;;;2.80;10.20;;;;;;4993790;28;20177;-68
2024/02/24 05:17:30;;;;;;;3.55;1.88;;;2.90;9.60;;;;;;4993951;28;20186;-68
2024/02/24 05:19:55;;;;;;;3.30;1.83;;;2.90;9.50;;;;;;4993919;28;20575;-69
2024/02/24 05:22:21;;;;;;;2.53;1.10;;;2.90;9.30;;;;;;4994021;28;20182;-67
2024/02/24 05:24:47;;;;;;;3.40;1.60;;;3.00;9.00;;;;;;4994027;28;20254;-69
2024/02/24 05:27:12;;;;;;;3.60;1.53;;;3.10;8.20;;;;;;4993785;28;20625;-69
2024/02/24 05:29:44;;;;;;;3.20;1.50;;;3.20;7.60;;;;;;4994001;28;20204;-68
2024/02/24 05:32:09;;;;;;;3.78;1.60;;;3.30;7.90;;;;;;4992791;28;20186;-72
2024/02/24 05:34:35;;;;;;;3.03;1.87;;;3.30;7.20;;;;;;4993328;28;20194;-68
2024/02/24 05:37:01;;;;;;;3.10;1.33;;;3.30;7.00;;;;;;4994122;28;20191;-69
2024/02/24 05:39:26;;;;;;;3.03;1.57;;;3.40;6.90;;;;;;4993973;28;20205;-68
2024/02/24 05:41:53;;;;;;;3.10;1.20;;;3.40;6.90;;;;;;4985099;28;20190;-69
2024/02/24 05:44:18;;;;;;;2.33;1.20;;;3.40;7.10;;;;;;4974319;28;20202;-69
2024/02/24 05:46:44;;;;;;;7.90;1.70;;;3.40;6.80;;;;;;4973623;28;20222;-68
2024/02/24 05:49:10;;;;;;;2.47;1.20;;;3.50;6.80;;;;;;4974866;28;20206;-68
2024/02/24 05:51:35;;;;;;;2.40;1.50;;;3.50;6.40;;;;;;4957480;28;20621;-70
2024/02/24 05:54:01;;;;;;;2.10;1.30;;;3.60;6.40;;;;;;4974846;28;20237;-70
2024/02/24 05:56:26;;;;;;;3.70;1.97;;;3.60;6.20;;;;;;4975264;28;20714;-69
2024/02/24 05:58:52;;;;;;;4.53;2.10;;;3.70;5.40;;;;;;4974637;28;20645;-74
2024/02/24 06:01:18;;;;;;;3.27;1.90;;;3.70;5.30;;;;;;4996007;28;20210;-69
2024/02/24 06:03:43;;;;;;;3.83;1.45;;;3.80;5.50;;;;;;4996337;28;20208;-67
2024/02/24 06:06:09;;;;;;;5.07;2.87;;;3.80;5.70;;;;;;4978512;28;20184;-69
2024/02/24 06:08:36;;;;;;;3.00;1.70;;;3.90;5.40;;;;;;4978115;28;20674;-69
2024/02/24 06:11:01;;;;;;;3.53;1.90;;;4.00;5.40;;;;;;4995433;28;20289;-70
2024/02/24 06:13:27;;;;;;;6.53;2.23;;;4.10;6.10;;;;;;4995058;28;20491;-70
2024/02/24 06:15:53;;;;;;;4.20;2.20;;;4.10;6.40;;;;;;4995255;28;20188;-70
2024/02/24 06:18:19;;;;;;;6.70;2.37;;;4.20;6.70;;;;;;4976531;28;20576;-70
2024/02/24 06:20:45;;;;;;;4.80;1.95;;;4.40;6.80;;;;;;4994652;28;20178;-76
2024/02/24 06:23:10;;;;;;;1.90;1.00;;;4.40;7.60;;;;;;4997959;28;20210;-69
2024/02/24 06:25:37;;;;;;;2.63;0.80;;;4.40;8.60;;;;;;5000195;28;20209;-70
2024/02/24 06:28:02;;;;;;;2.08;0.98;;;4.50;9.50;;;;;;5000040;28;20180;-69
2024/02/24 06:30:28;;;;;;;3.60;1.30;;;4.50;10.30;;;;;;4999168;28;20199;-70
2024/02/24 06:32:53;;;;;;;2.53;0.90;;;4.60;10.10;;;;;;4964199;28;20215;-70
2024/02/24 06:35:19;;;;;;;4.90;1.67;;;4.70;10.10;;;;;;4973986;28;20264;-69
2024/02/24 06:37:45;;;;;;;1.70;0.87;;;4.70;10.30;;;;;;4974082;28;20563;-69
2024/02/24 06:40:10;;;;;;;4.00;1.67;;;4.70;10.30;;;;;;4956423;28;20181;-69
2024/02/24 06:42:36;;;;;;;3.13;1.70;;;4.70;10.60;;;;;;4973570;28;20538;-71
2024/02/24 06:45:01;;;;;;;3.63;1.57;;;4.80;11.50;;;;;;4973488;28;20184;-70
2024/02/24 06:47:27;;;;;;;2.43;1.00;;;4.80;11.50;;;;;;4973310;28;20213;-72
2024/02/24 06:49:53;;;;;;;2.27;1.10;;;4.80;11.50;;;;;;4974271;28;20192;-70
2024/02/24 06:52:18;;;;;;;2.43;0.90;;;4.80;12.30;;;;;;4956159;28;20271;-72
2024/02/24 06:54:44;;;;;;;1.60;0.57;;;4.90;11.90;;;;;;4974659;28;20582;-70
2024/02/24 06:57:09;;;;;;;2.23;0.90;;;4.90;11.70;;;;;;4975466;28;20195;-70
2024/02/24 06:59:35;;;;;;;2.77;1.13;;;4.90;11.50;;;;;;4994062;28;20190;-70
2024/02/24 07:02:00;;;;;;;3.47;1.30;;;4.90;10.20;;;;;;4997126;28;20194;-71
2024/02/24 07:04:26;;;;;;;1.80;0.90;;;4.90;9.00;;;;;;4997388;28;20203;-71
2024/02/24 07:06:51;;;;;;;1.90;1.00;;;4.90;7.60;;;;;;4997387;28;20612;-70
2024/02/24 07:09:17;;;;;;;2.50;1.27;;;4.90;8.30;;;;;;4997273;28;20735;-69
2024/02/24 07:11:42;;;;;;;1.90;1.30;;;5.00;8.10;;;;;;4997567;28;20222;-70
2024/02/24 07:14:08;;;;;;;2.30;0.90;;;5.00;8.80;;;;;;4997112;28;20207;-70
2024/02/24 07:16:33;;;;;;;2.80;1.73;;;5.00;7.60;;;;;;4996857;28;20195;-70
2024/02/24 07:18:59;;;;;;;3.20;2.07;;;5.00;8.00;;;;;;4968758;28;20292;-73
2024/02/24 07:21:25;;;;;;;2.10;1.20;;;4.90;7.80;;;;;;4977046;28;20184;-72
2024/02/24 07:23:51;;;;;;;2.50;1.30;;;4.90;8.20;;;;;;4979490;28;20205;-73
2024/02/24 07:26:17;;;;;;;2.27;1.07;;;5.00;7.20;;;;;;4978675;28;20415;-71
2024/02/24 07:28:43;;;;;;;1.90;1.00;;;4.90;7.70;;;;;;4979280;28;20522;-70
2024/02/24 07:31:08;;;;;;;2.10;0.80;;;5.00;7.20;;;;;;4990616;28;20204;-71
2024/02/24 07:33:34;;;;;;;5.90;1.27;;;5.00;7.20;;;;;;4997788;28;20307;-72
2024/02/24 07:35:59;;;;;;;3.00;1.40;;;5.00;6.00;;;;;;4997325;28;20221;-72
2024/02/24 07:38:25;;;;;;;2.73;1.00;;;5.10;5.10;;;;;;4991193;28;20199;-68
2024/02/24 07:40:50;;;;;;;2.00;1.10;;;5.20;5.40;;;;;;4991119;28;20193;-69
2024/02/24 07:43:16;;;;;;;2.57;1.10;;;5.30;4.20;;;;;;4991576;28;20203;-69
2024/02/24 07:45:43;;;;;;;2.37;1.20;;;5.40;3.00;;;;;;4992503;28;20255;-69
2024/02/24 07:48:08;;;;;;;1.97;0.93;;;5.40;2.80;;;;;;4990722;28;20220;-68
2024/02/24 07:50:34;;;;;;;2.40;1.00;;;5.40;2.30;;;;;;4992610;28;20498;-68
2024/02/24 07:52:59;;;;;;;2.70;0.93;;;5.50;2.50;;;;;;4991041;28;20203;-68
2024/02/24 07:55:25;;;;;;;2.90;1.00;;;5.40;1.70;;;;;;4990051;28;20259;-68
2024/02/24 07:57:51;;;;;;;2.90;1.50;;;5.50;1.80;;;;;;4990467;28;20198;-68
2024/02/24 08:00:17;;;;;;;2.10;1.27;;;5.50;2.10;;;;;;4989939;28;20563;-68
2024/02/24 08:02:42;;;;;;;2.43;0.97;;;5.40;3.10;;;;;;4989930;28;20191;-71
2024/02/24 08:05:08;;;;;;;2.57;1.10;;;5.30;5.80;;;;;;4990310;28;20463;-67
2024/02/24 08:07:34;;;;;;;2.50;1.00;;;5.50;7.50;;;;;;4991268;28;20184;-67
2024/02/24 08:10:00;;;;;;;2.53;1.30;;;5.60;7.60;;;;;;4989751;28;20726;-68
2024/02/24 08:12:25;;;;;;;3.70;1.47;;;5.80;7.40;;;;;;4990226;28;20435;-69
2024/02/24 08:14:51;;;;;;;2.67;1.20;;;5.80;6.80;;;;;;4991060;28;20188;-68
2024/02/24 08:17:16;;;;;;;1.67;0.90;;;6.00;7.90;;;;;;4993658;28;20227;-70
2024/02/24 08:19:42;;;;;;;2.13;0.90;;;6.20;6.90;;;;;;4992103;28;20215;-69
2024/02/24 08:22:08;;;;;;;1.80;0.90;;;6.30;5.30;;;;;;4986419;28;20193;-68
2024/02/24 08:24:34;;;;;;;2.33;1.43;;;6.30;4.70;;;;;;4994704;28;20610;-69
2024/02/24 08:27:00;;;;;;;2.53;1.10;;;6.20;4.40;;;;;;4995021;28;20411;-69
2024/02/24 08:29:31;;;;;;;2.30;1.20;;;6.30;4.60;;;;;;4987149;28;20920;-68
2024/02/24 08:31:57;;;;;;;1.90;0.80;;;6.20;4.30;;;;;;4974996;28;20189;-69
2024/02/24 08:34:23;;;;;;;2.90;1.20;;;6.20;3.30;;;;;;4974932;28;20503;-68
2024/02/24 08:36:49;;;;;;;2.30;0.90;;;6.20;2.90;;;;;;4986872;28;20176;-67
2024/02/24 08:39:15;;;;;;;2.30;0.80;;;6.10;1.00;;;;;;4974728;28;20527;-68
2024/02/24 08:41:40;;;;;;;1.90;0.93;;;5.90;1.00;;;;;;4994647;28;20495;-69
2024/02/24 08:44:06;;;;;;;1.70;0.97;;;5.80;1.00;;;;;;4993583;28;20208;-70
2024/02/24 08:46:31;;;;;;;2.50;0.90;;;5.80;1.00;;;;;;4982710;28;20242;-68
2024/02/24 08:48:58;;;;;;;1.80;0.70;;;5.80;1.00;;;;;;4984960;28;20609;-70
2024/02/24 08:51:26;;;;;;;1.67;0.77;;;5.80;1.00;;;;;;4995093;28;20212;-69
2024/02/24 08:53:51;;;;;;;1.97;0.70;;;5.90;1.00;;;;;;4998203;28;20544;-68
2024/02/24 08:56:21;;;;;;;1.93;0.77;;;5.90;1.00;;;;;;4996111;28;20940;-69
2024/02/24 08:58:47;;;;;;;1.50;0.53;;;5.90;1.00;;;;;;4994665;28;20173;-69
2024/02/24 09:01:18;;;;;;;1.70;0.60;;;6.00;1.00;;;;;;4990609;28;20449;-68
2024/02/24 09:03:44;;;;;;;2.53;0.70;;;6.00;1.00;;;;;;4993743;28;20478;-69
2024/02/24 09:06:10;;;;;;;2.30;1.20;;;5.90;1.00;;;;;;4993741;28;20943;-67
2024/02/24 09:08:37;;;;;;;2.70;0.50;;;5.90;1.00;;;;;;5037679;22;20560;-69
2024/02/24 09:11:03;;;;;;;1.50;0.60;;;5.90;1.00;;;;;;5036374;28;20453;-68
2024/02/24 09:13:28;;;;;;;3.37;1.33;;;6.00;1.00;;;;;;5036438;28;20406;-68
2024/02/24 09:15:54;;;;;;;2.70;1.20;;;6.10;1.00;;;;;;5036369;28;20175;-68
2024/02/24 09:18:19;;;;;;;2.47;0.70;;;6.10;1.00;;;;;;5035425;28;20218;-68
2024/02/24 09:20:45;;;;;;;5.77;1.77;;;6.30;1.00;;;;;;5022002;28;20257;-67
2024/02/24 09:23:11;;;;;;;5.57;1.80;;;6.30;1.00;;;;;;5022886;28;20211;-67
2024/02/24 09:25:36;;;;;;;2.33;0.70;;;6.40;1.00;;;;;;5022598;28;20441;-68
2024/02/24 09:28:02;;;;;;;1.60;0.60;;;6.50;1.00;;;;;;5022001;28;20208;-67
2024/02/24 09:30:28;;;;;;;6.40;2.87;;;6.50;1.00;;;;;;5022359;28;20219;-68
2024/02/24 09:32:54;;;;;;;2.10;1.10;;;6.60;1.00;;;;;;5021577;28;20228;-68
2024/02/24 09:35:23;;;;;;;3.23;1.13;;;6.70;1.00;;;;;;5003779;28;20202;-68
2024/02/24 09:37:49;;;;;;;2.13;1.03;;;6.80;1.00;;;;;;5021702;28;20181;-66
2024/02/24 09:40:16;;;;;;;1.90;0.90;;;6.90;1.00;;;;;;5021788;28;20410;-67
2024/02/24 09:42:41;;;;;;;2.27;1.17;;;7.00;1.00;;;;;;5020966;28;20419;-67
2024/02/24 09:45:12;;;;;;;1.70;1.03;;;7.10;1.00;;;;;;5004174;28;20435;-68
2024/02/24 09:47:39;;;;;;;1.97;0.83;;;7.10;1.00;;;;;;5021842;28;20176;-69
2024/02/24 09:50:06;;;;;;;2.37;1.07;;;7.10;1.00;;;;;;5021693;28;20503;-69
2024/02/24 09:52:32;;;;;;;1.60;0.80;;;7.20;1.00;;;;;;5021659;28;20796;-69
2024/02/24 09:54:57;;;;;;;2.60;1.00;;;7.30;1.00;;;;;;5021974;28;20419;-69
2024/02/24 09:57:27;;;;;;;1.80;0.80;;;7.40;1.00;;;;;;5022406;28;20224;-69
2024/02/24 09:59:53;;;;;;;3.60;0.70;;;7.70;1.00;;;;;;5022366;28;20218;-70
2024/02/24 10:02:19;;;;;;;2.77;1.40;;;7.90;1.00;;;;;;5022578;28;20415;-68
2024/02/24 10:04:45;;;;;;;3.00;1.17;;;8.00;1.00;;;;;;5022306;28;20416;-68
2024/02/24 10:07:11;;;;;;;2.27;0.90;;;8.30;1.00;;;;;;5022873;28;20179;-67
2024/02/24 10:09:36;;;;;;;1.60;0.70;;;8.40;1.00;;;;;;5021717;28;20558;-68
2024/02/24 10:12:03;;;;;;;1.60;0.80;;;8.20;1.00;;;;;;5021909;28;20213;-68
2024/02/24 10:14:33;;;;;;;1.87;1.10;;;8.20;1.00;;;;;;5022584;28;20181;-68
2024/02/24 10:16:59;;;;;;;1.80;0.90;;;8.20;1.00;;;;;;5022598;28;20440;-68
2024/02/24 10:19:30;;;;;;;3.77;0.90;;;8.20;1.00;;;;;;5021428;28;20430;-68
2024/02/24 10:22:04;;;;;;;1.80;1.10;;;8.30;1.00;;;;;;5021568;28;20421;-68
2024/02/24 10:24:30;;;;;;;2.13;0.93;;;8.50;1.00;;;;;;5021808;28;20422;-68
2024/02/24 10:26:56;;;;;;;1.93;1.03;;;8.30;1.00;;;;;;5021566;28;20425;-68
2024/02/24 10:29:30;;;;;;;1.90;0.80;;;8.30;1.00;;;;;;5021457;28;20828;-68
2024/02/24 10:31:57;;;;;;;1.60;0.90;;;8.30;1.00;;;;;;5020308;28;20468;-68
2024/02/24 10:34:23;;;;;;;1.70;0.80;;;8.50;1.00;;;;;;5021662;28;20429;-68
2024/02/24 10:36:51;;;;;;;2.23;1.00;;;8.80;1.00;;;;;;5020853;28;20445;-68
2024/02/24 10:39:17;;;;;;;1.70;1.10;;;8.80;1.00;;;;;;5003798;28;20451;-68
2024/02/24 10:41:46;;;;;;;1.87;1.20;;;9.00;1.00;;;;;;5021059;28;20775;-68
2024/02/24 10:44:13;;;;;;;1.90;1.10;;;9.40;1.00;;;;;;5021513;28;20426;-68
2024/02/24 10:46:40;;;;;;;1.60;1.00;;;9.70;1.00;;;;;;5021107;28;20449;-68
2024/02/24 10:49:05;;;;;;;1.63;1.00;;;10.00;1.00;;;;;;5020796;28;20538;-69
2024/02/24 10:51:32;;;;;;;1.60;1.20;;;9.80;1.00;;;;;;5021170;28;20494;-67
2024/02/24 10:54:07;;;;;;;1.90;1.43;;;9.70;1.00;;;;;;5004190;28;20643;-68
2024/02/24 10:56:33;;;;;;;2.13;1.33;;;9.70;1.00;;;;;;5022443;28;20675;-67
2024/02/24 10:59:09;;;;;;;2.27;1.40;;;9.80;1.00;;;;;;5021302;28;20763;-67
2024/02/24 11:01:43;;;;;;;2.27;1.63;;;10.00;1.00;;;;;;5003543;28;20821;-68
2024/02/24 11:04:11;;;;;;;2.00;1.23;;;10.10;1.00;;;;;;5020833;28;20429;-68
2024/02/24 11:06:51;;;;;;;1.83;1.17;;;10.10;1.00;;;;;;5020818;28;20470;-68
2024/02/24 11:09:33;;;;;;;1.70;1.10;;;10.30;1.00;;;;;;5021159;28;20466;-70
2024/02/24 11:12:03;;;;;;;2.20;1.63;;;10.10;1.00;;;;;;5021481;28;20497;-67
2024/02/24 11:14:30;;;;;;;1.80;1.07;;;10.00;1.00;;;;;;5021336;28;20449;-67
2024/02/24 11:16:58;;;;;;;3.47;2.20;;;9.80;1.00;;;;;;5021790;28;20411;-67
2024/02/24 11:19:40;;;;;;;2.57;1.87;;;10.00;1.00;;;;;;5020823;28;20431;-68
2024/02/24 11:22:08;;;;;;;3.70;1.50;;;10.20;1.00;;;;;;5021570;28;20489;-67
2024/02/24 11:24:35;;;;;;;3.20;2.17;;;10.20;1.00;;;;;;5002030;28;20457;-67
2024/02/24 11:27:02;;;;;;;1.80;1.17;;;10.40;1.00;;;;;;5021005;28;20434;-68
2024/02/24 11:29:28;;;;;;;1.50;1.00;;;10.40;1.00;;;;;;5020957;28;20530;-68
2024/02/24 11:32:11;;;;;;;3.07;1.77;;;10.40;1.00;;;;;;5019756;28;20546;-68
2024/02/24 11:34:37;;;;;;;2.13;1.30;;;10.10;1.00;;;;;;5019857;28;20423;-68
2024/02/24 11:37:04;;;;;;;3.10;1.47;;;10.10;1.00;;;;;;5020323;28;20441;-69
2024/02/24 11:39:30;;;;;;;2.87;1.57;;;10.00;1.00;;;;;;5021685;28;20431;-68
2024/02/24 11:41:57;;;;;;;2.00;1.50;;;10.10;1.00;;;;;;5002902;28;20425;-68
2024/02/24 11:44:22;;;;;;;2.20;1.50;;;10.30;1.00;;;;;;5024653;28;20796;-68
2024/02/24 11:46:48;;;;;;;1.70;1.30;;;10.30;1.00;;;;;;5024351;28;20446;-68
2024/02/24 11:49:17;;;;;;;1.90;1.60;;;10.00;1.00;;;;;;5024005;28;20253;-68
2024/02/24 11:51:47;;;;;;;1.70;1.30;;;9.80;1.00;;;;;;5006418;28;20470;-68
2024/02/24 11:54:13;;;;;;;2.77;2.20;;;9.90;1.00;;;;;;5005953;28;20426;-68
2024/02/24 11:56:39;;;;;;;1.87;1.67;;;10.00;1.00;;;;;;5023961;28;20922;-68
2024/02/24 11:59:08;;;;;;;1.60;1.40;;;10.00;1.00;;;;;;5027847;28;20444;-68
2024/02/24 12:01:36;;;;;;;2.83;1.57;;;9.80;1.00;;;;;;5033960;28;20419;-67
2024/02/24 12:04:01;;;;;;;1.97;1.50;;;9.90;1.00;;;;;;5032940;28;20427;-68
2024/02/24 12:06:30;;;;;;;2.73;1.50;;;10.00;1.00;;;;;;5028795;28;20411;-68
2024/02/24 12:08:57;;;;;;;2.10;1.50;;;9.90;1.00;;;;;;5024764;28;20298;-69
2024/02/24 12:11:24;;;;;;;2.43;1.20;;;9.90;1.00;;;;;;5022940;28;20470;-68
2024/02/24 12:13:49;;;;;;;1.60;1.30;;;10.20;1.00;;;;;;5005077;28;20450;-69
2024/02/24 12:16:16;;;;;;;2.30;1.40;;;10.20;1.00;;;;;;5022924;28;20423;-68
2024/02/24 12:18:43;;;;;;;1.80;1.40;;;10.30;1.00;;;;;;5024360;28;20203;-68
2024/02/24 12:21:13;;;;;;;2.10;1.33;;;10.00;1.00;;;;;;5024433;28;20407;-68
2024/02/24 12:23:40;;;;;;;1.50;1.30;;;9.70;1.00;;;;;;5023868;28;20474;-69
2024/02/24 12:26:14;;;;;;;1.50;1.17;;;9.70;1.00;;;;;;5023793;28;20446;-69
2024/02/24 12:28:40;;;;;;;2.00;1.80;;;9.90;1.00;;;;;;5024317;28;20442;-69
2024/02/24 12:31:08;;;;;;;1.60;1.40;;;10.00;1.00;;;;;;5024175;28;20481;-69
2024/02/24 12:33:36;;;;;;;2.10;1.90;;;10.30;1.00;;;;;;5022178;28;20422;-69
2024/02/24 12:36:10;;;;;;;1.70;1.20;;;10.50;1.00;;;;;;5004641;28;20418;-67
2024/02/24 12:38:36;;;;;;;2.00;1.50;;;10.70;1.00;;;;;;5022383;28;20450;-67
2024/02/24 12:41:12;;;;;;;1.60;1.30;;;11.10;1.00;;;;;;5021784;28;20415;-68
2024/02/24 12:43:40;;;;;;;1.60;1.43;;;11.50;1.00;;;;;;5020904;28;20415;-68
2024/02/24 12:46:06;;;;;;;1.80;1.70;;;11.40;1.00;;;;;;5021875;28;20742;-68
2024/02/24 12:48:32;;;;;;;4.40;1.80;;;11.50;1.00;;;;;;5021757;28;20439;-68
2024/02/24 12:50:58;;;;;;;2.30;1.80;;;11.70;1.00;;;;;;5021620;28;20561;-67
2024/02/24 12:53:24;;;;;;;2.10;1.80;;;11.50;1.00;;;;;;5021237;28;20445;-67
2024/02/24 12:55:50;;;;;;;2.10;1.77;;;11.30;1.00;;;;;;5022648;28;20412;-70
2024/02/24 12:58:15;;;;;;;1.97;1.77;;;11.20;1.00;;;;;;5006125;28;20671;-68
2024/02/24 13:00:41;;;;;;;1.67;1.50;;;11.00;1.00;;;;;;5022993;28;21051;-68